Pleasant Valley, Iowa
Current Conditions -  °F | °C
As of 3:52 AM on Thursday 23 Oct 2014 (Local Time) from KDVN Reporting Station
Clear Clear  
Wind Chill: 38°   Ceiling: Unl
Heat Index: 44°   Visibility: 10mi
Dew Point: 35°   Wind: 13mph
Humidity: 71%   Direction: 160°SSE
Pressure: 30.16"   Gusts: NA
Location:  41.57°N, 90.42°W
Report Text: KDVN 230852Z AUTO 16011KT 10SM CLR 07/02 A3016 RMK AO2 SLP214 T00670017 58013 TSNO
Loading
Personal Weather Stations






























Interactive Weather Map
Tropical Storm Tracking
New forecast layout! Learn more

10-Day Weather Forecast

Advertisements
Track Severe Weather on mobile